Sealyon — 2CGJ2 — position and weather

sailwx.info

Track history (hours):
 
Tides and Currents Weather Stations Pressure Air Temp Water Temp Dewpoint Dewpoint Depression Visibility Wind Speed Wind Dir Waves Ship Positions

Sealyon

Last reported at 2014-Nov-24 22:21 UTC. Time now 2014-Nov-26 03:04 UTC.
Position N 35°59' W 005°28'.

Length 62 m; draft 3.6 m.

Type: Pleasure craft. MMSI: 235072538.

Date/timePositionNaut miles runAvg speedWind from/ knotsBaromVisibWave heightAir tempDewpointWater temp
2014-Nov-24 22:21N 35°59' W 005°28'911.6
2014-Nov-24 21:33N 36°08' W 005°22'3 0.2
2014-Nov-24 06:10N 36°06' W 005°20'1 0.9
2014-Nov-24 05:20N 36°06' W 005°19'26913.5
2014-Nov-23 09:29N 37°54' W 000°11'11514.5
2014-Nov-23 01:32N 39°18' E 001°30'1413.8
2014-Nov-23 00:33N 39°27' E 001°43'1413.9
2014-Nov-22 23:33N 39°36' E 001°57'1414.1
2014-Nov-22 22:33N 39°46' E 002°10'1414.3
2014-Nov-22 21:33N 39°55' E 002°24'1414.2
2014-Nov-22 20:33N 40°05' E 002°38'1414.0
2014-Nov-22 19:33N 40°14' E 002°51'1413.5
2014-Nov-22 18:33N 40°23' E 003°05'1413.8
2014-Nov-22 17:33N 40°33' E 003°18'1414.1
2014-Nov-22 16:33N 40°42' E 003°32'1513.9
2014-Nov-22 15:30N 40°52' E 003°46'1513.4
2014-Nov-22 14:22N 41°02' E 004°01'3813.6
2014-Nov-22 11:33N 41°28' E 004°39'2113.8
2014-Nov-22 10:04N 41°42' E 004°59'12114.3
2014-Nov-22 01:34N 43°03' E 007°01'9015.0
2014-Nov-21 19:33N 44°04' E 008°33'1413.9
2014-Nov-21 18:34N 44°13' E 008°47'1111.3
2014-Nov-21 17:33N 44°22' E 008°57'2 1.7
2014-Nov-21 16:30N 44°24' E 008°56'0 0.0
2014-Nov-21 15:31N 44°24' E 008°56'0 0.0
2014-Nov-21 14:14N 44°24' E 008°56'0 0.0
2014-Nov-21 13:26N 44°24' E 008°56'0 0.0
2014-Nov-21 12:33N 44°24' E 008°56'0 0.0
2014-Nov-21 11:31N 44°24' E 008°56'0 0.0
2014-Nov-21 10:31N 44°24' E 008°56'0 0.0
2014-Nov-21 09:23N 44°24' E 008°56'0 0.0
2014-Nov-21 08:30N 44°24' E 008°56'0 0.0
2014-Nov-21 07:33N 44°24' E 008°56'0 0.0
2014-Nov-21 06:25N 44°24' E 008°56'0 0.0
2014-Nov-21 05:26N 44°24' E 008°56'0 0.0
2014-Nov-21 04:32N 44°24' E 008°56'0 0.0
2014-Nov-21 03:33N 44°24' E 008°56'0 0.0
2014-Nov-21 02:28N 44°24' E 008°56'0 0.0
2014-Nov-21 01:31N 44°24' E 008°56'0 0.0
2014-Nov-21 00:23N 44°24' E 008°56'0 0.0
2014-Nov-20 23:33N 44°24' E 008°56'0 0.0
2014-Nov-20 22:30N 44°24' E 008°56'0 0.0
2014-Nov-20 21:31N 44°24' E 008°56'0 0.0
2014-Nov-20 20:26N 44°24' E 008°56'0 0.0
2014-Nov-20 19:29N 44°24' E 008°56'0 0.0
2014-Nov-20 18:12N 44°24' E 008°56'0 0.0
2014-Nov-20 17:22N 44°24' E 008°56'0 0.0
2014-Nov-20 16:28N 44°24' E 008°56'0 0.0
2014-Nov-20 15:29N 44°24' E 008°56'0 0.0
2014-Nov-20 14:33N 44°24' E 008°56'0 0.0
2014-Nov-20 13:33N 44°24' E 008°56'0 0.0
2014-Nov-20 12:33N 44°24' E 008°56'3 3.4
2014-Nov-20 11:33N 44°22' E 009°00'5 5.0
2014-Nov-20 10:33N 44°19' E 009°06'2 1.6
2014-Nov-20 09:33N 44°18' E 009°04'8 7.6
2014-Nov-20 08:33N 44°24' E 008°56'0 0.1
2014-Nov-20 07:31N 44°24' E 008°56'0 0.0
2014-Nov-20 06:23N 44°24' E 008°56'0 0.0
2014-Nov-20 05:05N 44°24' E 008°56'0 0.0
2014-Nov-20 04:12N 44°24' E 008°56'0 0.0
2014-Nov-20 03:30N 44°24' E 008°56'0 0.0
2014-Nov-20 02:31N 44°24' E 008°56'0 0.0
2014-Nov-20 01:32N 44°24' E 008°56'0 0.0
2014-Nov-20 00:32N 44°24' E 008°56'0 0.0
2014-Nov-19 23:33N 44°24' E 008°56'0 0.0
2014-Nov-19 22:22N 44°24' E 008°56'0 0.0
2014-Nov-19 21:28N 44°24' E 008°56'0 0.0
2014-Nov-19 20:32N 44°24' E 008°56'0 0.0
2014-Nov-19 19:30N 44°24' E 008°56'0 0.0
2014-Nov-19 18:33N 44°24' E 008°56'0 0.0
2014-Nov-19 17:31N 44°24' E 008°56'0 0.0
2014-Nov-19 16:32N 44°24' E 008°56'0 0.0
2014-Nov-19 15:32N 44°24' E 008°56'0 0.0
2014-Nov-19 14:33N 44°24' E 008°56'0 0.0
2014-Nov-19 13:28N 44°24' E 008°56'0 0.0
2014-Nov-19 12:23N 44°24' E 008°56'0 0.0
2014-Nov-19 11:29N 44°24' E 008°56'0 0.0
2014-Nov-19 10:24N 44°24' E 008°56'0 0.0
2014-Nov-19 09:19N 44°24' E 008°56'0 0.0
2014-Nov-19 08:04N 44°24' E 008°56'0 0.0
2014-Nov-19 07:26N 44°24' E 008°56'0 0.0
2014-Nov-19 06:32N 44°24' E 008°56'0 0.0
2014-Nov-19 05:21N 44°24' E 008°56'0 0.0
2014-Nov-19 04:28N 44°24' E 008°56'0 0.0
2014-Nov-19 03:32N 44°24' E 008°56'0 0.0
2014-Nov-19 02:29N 44°24' E 008°56'0 0.0
2014-Nov-19 01:30N 44°24' E 008°56'0 0.0
2014-Nov-19 00:30N 44°24' E 008°56'0 0.0
2014-Nov-18 23:31N 44°24' E 008°56'0 0.0
2014-Nov-18 22:32N 44°24' E 008°56'0 0.0
2014-Nov-18 21:27N 44°24' E 008°56'0 0.0
2014-Nov-18 20:09N 44°24' E 008°56'0 0.0
2014-Nov-18 19:28N 44°24' E 008°56'0 0.0
2014-Nov-18 18:17N 44°24' E 008°56'0 0.0
2014-Nov-18 17:29N 44°24' E 008°56'0 0.0
2014-Nov-18 16:24N 44°24' E 008°56'0 0.0
2014-Nov-18 15:31N 44°24' E 008°56'0 0.0
2014-Nov-18 14:31N 44°24' E 008°56'0 0.0
2014-Nov-18 13:32N 44°24' E 008°56'0 0.0
2014-Nov-18 12:27N 44°24' E 008°56'0 0.0
2014-Nov-18 11:33N 44°24' E 008°56'0 0.0
2014-Nov-18 10:28N 44°24' E 008°56'0 0.0
2014-Nov-18 09:32N 44°24' E 008°56'0 0.0
2014-Nov-18 08:17N 44°24' E 008°56'0 0.0
2014-Nov-18 07:33N 44°24' E 008°56'0 0.0
2014-Nov-18 06:31N 44°24' E 008°56'0 0.0
2014-Nov-18 05:25N 44°24' E 008°56'0 0.0
2014-Nov-18 04:20N 44°24' E 008°56'0 0.0
2014-Nov-18 03:33N 44°24' E 008°56'0 0.0
2014-Nov-18 02:33N 44°24' E 008°56'0 0.0
2014-Nov-18 01:31N 44°24' E 008°56'0 0.0
2014-Nov-18 00:32N 44°24' E 008°56'0 0.0
2014-Nov-17 23:32N 44°24' E 008°56'0 0.0
2014-Nov-17 22:24N 44°24' E 008°56'0 0.0
2014-Nov-17 21:31N 44°24' E 008°56'0 0.0
2014-Nov-17 20:13N 44°24' E 008°56'0 0.0
2014-Nov-17 19:20N 44°24' E 008°56'0 0.0
2014-Nov-17 18:21N 44°24' E 008°56'0 0.0
2014-Nov-17 17:27N 44°24' E 008°56'0 0.0
2014-Nov-17 16:22N 44°24' E 008°56'0 0.0
2014-Nov-17 15:32N 44°24' E 008°56'0 0.0
2014-Nov-17 14:23N 44°24' E 008°56'0 0.0
2014-Nov-17 13:12N 44°24' E 008°56'0 0.0
2014-Nov-17 12:13N 44°24' E 008°56'0 0.0
2014-Nov-17 11:31N 44°24' E 008°56'0 0.0
2014-Nov-17 10:20N 44°24' E 008°56'0 0.0
2014-Nov-17 09:09N 44°24' E 008°56'0 0.0
2014-Nov-17 07:28N 44°24' E 008°56'0 0.0
2014-Nov-17 06:32N 44°24' E 008°56'0 0.0
2014-Nov-17 05:23N 44°24' E 008°56'0 0.0
2014-Nov-17 04:24N 44°24' E 008°56'0 0.0
2014-Nov-17 03:31N 44°24' E 008°56'0 0.0
2014-Nov-17 02:31N 44°24' E 008°56'0 0.0
2014-Nov-17 01:32N 44°24' E 008°56'0 0.0
2014-Nov-17 00:33N 44°24' E 008°56'0 0.0
2014-Nov-16 23:27N 44°24' E 008°56'0 0.0
2014-Nov-16 22:31N 44°24' E 008°56'0 0.0
2014-Nov-16 21:29N 44°24' E 008°56'0 0.0
2014-Nov-16 20:23N 44°24' E 008°56'0 0.0
2014-Nov-16 19:30N 44°24' E 008°56'0 0.0
2014-Nov-16 18:07N 44°24' E 008°56'0 0.0
2014-Nov-16 17:14N 44°24' E 008°56'0 0.0
2014-Nov-16 16:32N 44°24' E 008°56'0 0.0
2014-Nov-16 14:33N 44°24' E 008°56'0 0.0
2014-Nov-16 13:22N 44°24' E 008°56'0 0.0
2014-Nov-16 12:26N 44°24' E 008°56'0 0.0
2014-Nov-16 11:12N 44°24' E 008°56'0 0.0
2014-Nov-16 10:18N 44°24' E 008°56'0 0.0
2014-Nov-16 09:31N 44°24' E 008°56'0 0.0
2014-Nov-16 08:31N 44°24' E 008°56'0 0.0
2014-Nov-16 07:14N 44°24' E 008°56'0 0.0
2014-Nov-16 06:09N 44°24' E 008°56'0 0.0
2014-Nov-16 05:33N 44°24' E 008°56'0 0.0
2014-Nov-16 04:28N 44°24' E 008°56'0 0.0
2014-Nov-16 03:26N 44°24' E 008°56'0 0.0
2014-Nov-16 02:32N 44°24' E 008°56'0 0.0
2014-Nov-16 01:30N 44°24' E 008°56'0 0.0
2014-Nov-16 00:31N 44°24' E 008°56'0 0.0
2014-Nov-15 23:25N 44°24' E 008°56'0 0.0
2014-Nov-15 20:15N 44°24' E 008°56'0 0.0
2014-Nov-15 19:31N 44°24' E 008°56'0 0.0
2014-Nov-15 17:29N 44°24' E 008°56'0 0.0
2014-Nov-15 16:30N 44°24' E 008°56'0 0.0
2014-Nov-15 15:25N 44°24' E 008°56'0 0.0
2014-Nov-15 14:31N 44°24' E 008°56'0 0.0
2014-Nov-15 12:27N 44°24' E 008°56'0 0.0
2014-Nov-15 11:33N 44°24' E 008°56'0 0.0
2014-Nov-15 09:29N 44°24' E 008°56'0 0.0
2014-Nov-15 08:29N 44°24' E 008°56'0 0.0
2014-Nov-15 07:30N 44°24' E 008°56'0 0.0
2014-Nov-15 06:31N 44°24' E 008°56'0 0.0
2014-Nov-15 05:25N 44°24' E 008°56'0 0.0
2014-Nov-15 04:32N 44°24' E 008°56'0 0.0
2014-Nov-15 03:33N 44°24' E 008°56'0 0.0
2014-Nov-15 02:27N 44°24' E 008°56'0 0.0
2014-Nov-15 01:28N 44°24' E 008°56'0 0.0
2014-Nov-15 00:29N 44°24' E 008°56'0 0.0
2014-Nov-14 23:29N 44°24' E 008°56'0 0.0
2014-Nov-14 22:30N 44°24' E 008°56'  
Track history (hours):
 
Tides and Currents Weather Stations Pressure Air Temp Water Temp Dewpoint Dewpoint Depression Visibility Wind Speed Wind Dir Waves Ship Positions

Sealyon

Last reported at 2014-Nov-24 22:21 UTC. Time now 2014-Nov-26 03:04 UTC.
Position N 35°59' W 005°28'.

Length 62 m; draft 3.6 m.

Type: Pleasure craft. MMSI: 235072538.

Date/timePositionNaut miles runAvg speedWind from/ knotsBaromVisibWave heightAir tempDewpointWater temp
2014-Nov-24 22:21N 35°59' W 005°28'911.6
2014-Nov-24 21:33N 36°08' W 005°22'3 0.2
2014-Nov-24 06:10N 36°06' W 005°20'1 0.9
2014-Nov-24 05:20N 36°06' W 005°19'26913.5
2014-Nov-23 09:29N 37°54' W 000°11'11514.5
2014-Nov-23 01:32N 39°18' E 001°30'1413.8
2014-Nov-23 00:33N 39°27' E 001°43'1413.9
2014-Nov-22 23:33N 39°36' E 001°57'1414.1
2014-Nov-22 22:33N 39°46' E 002°10'1414.3
2014-Nov-22 21:33N 39°55' E 002°24'1414.2
2014-Nov-22 20:33N 40°05' E 002°38'1414.0
2014-Nov-22 19:33N 40°14' E 002°51'1413.5
2014-Nov-22 18:33N 40°23' E 003°05'1413.8
2014-Nov-22 17:33N 40°33' E 003°18'1414.1
2014-Nov-22 16:33N 40°42' E 003°32'1513.9
2014-Nov-22 15:30N 40°52' E 003°46'1513.4
2014-Nov-22 14:22N 41°02' E 004°01'3813.6
2014-Nov-22 11:33N 41°28' E 004°39'2113.8
2014-Nov-22 10:04N 41°42' E 004°59'12114.3
2014-Nov-22 01:34N 43°03' E 007°01'9015.0
2014-Nov-21 19:33N 44°04' E 008°33'1413.9
2014-Nov-21 18:34N 44°13' E 008°47'1111.3
2014-Nov-21 17:33N 44°22' E 008°57'2 1.7
2014-Nov-21 16:30N 44°24' E 008°56'0 0.0
2014-Nov-21 15:31N 44°24' E 008°56'0 0.0
2014-Nov-21 14:14N 44°24' E 008°56'0 0.0
2014-Nov-21 13:26N 44°24' E 008°56'0 0.0
2014-Nov-21 12:33N 44°24' E 008°56'0 0.0
2014-Nov-21 11:31N 44°24' E 008°56'0 0.0
2014-Nov-21 10:31N 44°24' E 008°56'0 0.0
2014-Nov-21 09:23N 44°24' E 008°56'0 0.0
2014-Nov-21 08:30N 44°24' E 008°56'0 0.0
2014-Nov-21 07:33N 44°24' E 008°56'0 0.0
2014-Nov-21 06:25N 44°24' E 008°56'0 0.0
2014-Nov-21 05:26N 44°24' E 008°56'0 0.0
2014-Nov-21 04:32N 44°24' E 008°56'0 0.0
2014-Nov-21 03:33N 44°24' E 008°56'0 0.0
2014-Nov-21 02:28N 44°24' E 008°56'0 0.0
2014-Nov-21 01:31N 44°24' E 008°56'0 0.0
2014-Nov-21 00:23N 44°24' E 008°56'0 0.0
2014-Nov-20 23:33N 44°24' E 008°56'0 0.0
2014-Nov-20 22:30N 44°24' E 008°56'0 0.0
2014-Nov-20 21:31N 44°24' E 008°56'0 0.0
2014-Nov-20 20:26N 44°24' E 008°56'0 0.0
2014-Nov-20 19:29N 44°24' E 008°56'0 0.0
2014-Nov-20 18:12N 44°24' E 008°56'0 0.0
2014-Nov-20 17:22N 44°24' E 008°56'0 0.0
2014-Nov-20 16:28N 44°24' E 008°56'0 0.0
2014-Nov-20 15:29N 44°24' E 008°56'0 0.0
2014-Nov-20 14:33N 44°24' E 008°56'0 0.0
2014-Nov-20 13:33N 44°24' E 008°56'0 0.0
2014-Nov-20 12:33N 44°24' E 008°56'3 3.4
2014-Nov-20 11:33N 44°22' E 009°00'5 5.0
2014-Nov-20 10:33N 44°19' E 009°06'2 1.6
2014-Nov-20 09:33N 44°18' E 009°04'8 7.6
2014-Nov-20 08:33N 44°24' E 008°56'0 0.1
2014-Nov-20 07:31N 44°24' E 008°56'0 0.0
2014-Nov-20 06:23N 44°24' E 008°56'0 0.0
2014-Nov-20 05:05N 44°24' E 008°56'0 0.0
2014-Nov-20 04:12N 44°24' E 008°56'0 0.0
2014-Nov-20 03:30N 44°24' E 008°56'0 0.0
2014-Nov-20 02:31N 44°24' E 008°56'0 0.0
2014-Nov-20 01:32N 44°24' E 008°56'0 0.0
2014-Nov-20 00:32N 44°24' E 008°56'0 0.0
2014-Nov-19 23:33N 44°24' E 008°56'0 0.0
2014-Nov-19 22:22N 44°24' E 008°56'0 0.0
2014-Nov-19 21:28N 44°24' E 008°56'0 0.0
2014-Nov-19 20:32N 44°24' E 008°56'0 0.0
2014-Nov-19 19:30N 44°24' E 008°56'0 0.0
2014-Nov-19 18:33N 44°24' E 008°56'0 0.0
2014-Nov-19 17:31N 44°24' E 008°56'0 0.0
2014-Nov-19 16:32N 44°24' E 008°56'0 0.0
2014-Nov-19 15:32N 44°24' E 008°56'0 0.0
2014-Nov-19 14:33N 44°24' E 008°56'0 0.0
2014-Nov-19 13:28N 44°24' E 008°56'0 0.0
2014-Nov-19 12:23N 44°24' E 008°56'0 0.0
2014-Nov-19 11:29N 44°24' E 008°56'0 0.0
2014-Nov-19 10:24N 44°24' E 008°56'0 0.0
2014-Nov-19 09:19N 44°24' E 008°56'0 0.0
2014-Nov-19 08:04N 44°24' E 008°56'0 0.0
2014-Nov-19 07:26N 44°24' E 008°56'0 0.0
2014-Nov-19 06:32N 44°24' E 008°56'0 0.0
2014-Nov-19 05:21N 44°24' E 008°56'0 0.0
2014-Nov-19 04:28N 44°24' E 008°56'0 0.0
2014-Nov-19 03:32N 44°24' E 008°56'0 0.0
2014-Nov-19 02:29N 44°24' E 008°56'0 0.0
2014-Nov-19 01:30N 44°24' E 008°56'0 0.0
2014-Nov-19 00:30N 44°24' E 008°56'0 0.0
2014-Nov-18 23:31N 44°24' E 008°56'0 0.0
2014-Nov-18 22:32N 44°24' E 008°56'0 0.0
2014-Nov-18 21:27N 44°24' E 008°56'0 0.0
2014-Nov-18 20:09N 44°24' E 008°56'0 0.0
2014-Nov-18 19:28N 44°24' E 008°56'0 0.0
2014-Nov-18 18:17N 44°24' E 008°56'0 0.0
2014-Nov-18 17:29N 44°24' E 008°56'0 0.0
2014-Nov-18 16:24N 44°24' E 008°56'0 0.0
2014-Nov-18 15:31N 44°24' E 008°56'0 0.0
2014-Nov-18 14:31N 44°24' E 008°56'0 0.0
2014-Nov-18 13:32N 44°24' E 008°56'0 0.0
2014-Nov-18 12:27N 44°24' E 008°56'0 0.0
2014-Nov-18 11:33N 44°24' E 008°56'0 0.0
2014-Nov-18 10:28N 44°24' E 008°56'0 0.0
2014-Nov-18 09:32N 44°24' E 008°56'0 0.0
2014-Nov-18 08:17N 44°24' E 008°56'0 0.0
2014-Nov-18 07:33N 44°24' E 008°56'0 0.0
2014-Nov-18 06:31N 44°24' E 008°56'0 0.0
2014-Nov-18 05:25N 44°24' E 008°56'0 0.0
2014-Nov-18 04:20N 44°24' E 008°56'0 0.0
2014-Nov-18 03:33N 44°24' E 008°56'0 0.0
2014-Nov-18 02:33N 44°24' E 008°56'0 0.0
2014-Nov-18 01:31N 44°24' E 008°56'0 0.0
2014-Nov-18 00:32N 44°24' E 008°56'0 0.0
2014-Nov-17 23:32N 44°24' E 008°56'0 0.0
2014-Nov-17 22:24N 44°24' E 008°56'0 0.0
2014-Nov-17 21:31N 44°24' E 008°56'0 0.0
2014-Nov-17 20:13N 44°24' E 008°56'0 0.0
2014-Nov-17 19:20N 44°24' E 008°56'0 0.0
2014-Nov-17 18:21N 44°24' E 008°56'0 0.0
2014-Nov-17 17:27N 44°24' E 008°56'0 0.0
2014-Nov-17 16:22N 44°24' E 008°56'0 0.0
2014-Nov-17 15:32N 44°24' E 008°56'0 0.0
2014-Nov-17 14:23N 44°24' E 008°56'0 0.0
2014-Nov-17 13:12N 44°24' E 008°56'0 0.0
2014-Nov-17 12:13N 44°24' E 008°56'0 0.0
2014-Nov-17 11:31N 44°24' E 008°56'0 0.0
2014-Nov-17 10:20N 44°24' E 008°56'0 0.0
2014-Nov-17 09:09N 44°24' E 008°56'0 0.0
2014-Nov-17 07:28N 44°24' E 008°56'0 0.0
2014-Nov-17 06:32N 44°24' E 008°56'0 0.0
2014-Nov-17 05:23N 44°24' E 008°56'0 0.0
2014-Nov-17 04:24N 44°24' E 008°56'0 0.0
2014-Nov-17 03:31N 44°24' E 008°56'0 0.0
2014-Nov-17 02:31N 44°24' E 008°56'0 0.0
2014-Nov-17 01:32N 44°24' E 008°56'0 0.0
2014-Nov-17 00:33N 44°24' E 008°56'0 0.0
2014-Nov-16 23:27N 44°24' E 008°56'0 0.0
2014-Nov-16 22:31N 44°24' E 008°56'0 0.0
2014-Nov-16 21:29N 44°24' E 008°56'0 0.0
2014-Nov-16 20:23N 44°24' E 008°56'0 0.0
2014-Nov-16 19:30N 44°24' E 008°56'0 0.0
2014-Nov-16 18:07N 44°24' E 008°56'0 0.0
2014-Nov-16 17:14N 44°24' E 008°56'0 0.0
2014-Nov-16 16:32N 44°24' E 008°56'0 0.0
2014-Nov-16 14:33N 44°24' E 008°56'0 0.0
2014-Nov-16 13:22N 44°24' E 008°56'0 0.0
2014-Nov-16 12:26N 44°24' E 008°56'0 0.0
2014-Nov-16 11:12N 44°24' E 008°56'0 0.0
2014-Nov-16 10:18N 44°24' E 008°56'0 0.0
2014-Nov-16 09:31N 44°24' E 008°56'0 0.0
2014-Nov-16 08:31N 44°24' E 008°56'0 0.0
2014-Nov-16 07:14N 44°24' E 008°56'0 0.0
2014-Nov-16 06:09N 44°24' E 008°56'0 0.0
2014-Nov-16 05:33N 44°24' E 008°56'0 0.0
2014-Nov-16 04:28N 44°24' E 008°56'0 0.0
2014-Nov-16 03:26N 44°24' E 008°56'0 0.0
2014-Nov-16 02:32N 44°24' E 008°56'0 0.0
2014-Nov-16 01:30N 44°24' E 008°56'0 0.0
2014-Nov-16 00:31N 44°24' E 008°56'0 0.0
2014-Nov-15 23:25N 44°24' E 008°56'0 0.0
2014-Nov-15 20:15N 44°24' E 008°56'0 0.0
2014-Nov-15 19:31N 44°24' E 008°56'0 0.0
2014-Nov-15 17:29N 44°24' E 008°56'0 0.0
2014-Nov-15 16:30N 44°24' E 008°56'0 0.0
2014-Nov-15 15:25N 44°24' E 008°56'0 0.0
2014-Nov-15 14:31N 44°24' E 008°56'0 0.0
2014-Nov-15 12:27N 44°24' E 008°56'0 0.0
2014-Nov-15 11:33N 44°24' E 008°56'0 0.0
2014-Nov-15 09:29N 44°24' E 008°56'0 0.0
2014-Nov-15 08:29N 44°24' E 008°56'0 0.0
2014-Nov-15 07:30N 44°24' E 008°56'0 0.0
2014-Nov-15 06:31N 44°24' E 008°56'0 0.0
2014-Nov-15 05:25N 44°24' E 008°56'0 0.0
2014-Nov-15 04:32N 44°24' E 008°56'0 0.0
2014-Nov-15 03:33N 44°24' E 008°56'0 0.0
2014-Nov-15 02:27N 44°24' E 008°56'0 0.0
2014-Nov-15 01:28N 44°24' E 008°56'0 0.0
2014-Nov-15 00:29N 44°24' E 008°56'0 0.0
2014-Nov-14 23:29N 44°24' E 008°56'0 0.0
2014-Nov-14 22:30N 44°24' E 008°56'  

Dump ship's entire track history